AFL5085 UWWW-LEGR
Flight info
| Callsign | AFL5085 |
|---|---|
| Flight time | N/A |
| Altitude | 36000 |
| Route | ABDIS T759 GEKPA L736 ASKIL L735 BADUS DCT VABER L29 SUWGI L735 GOVEN DCT AMOSA N869 MILPA T14 ONNOF UN852 DIVKO UN975 NILDU N975 BCN M985 VIBAS |
| Aircraft | B772/H-SDE/2000 |
Departure
| Time | 2025-10-10 07:15 |
|---|---|
| Airport | Kurumoch International Airport (UWWW) |
Arrival
| Time | N/A |
|---|---|
| Airport | F.G.L. Airport Granada-Jaén Airport (LEGR) |
| Time | Latitude | Longitude | Altitude | Speed | Heading |
|---|---|---|---|---|---|
| 2025-10-10 06:37 | 53.51017 | 50.15905 | 492 ft | 0 kts | 333° |
| 2025-10-10 07:08 | 53.51024 | 50.15900 | 492 ft | 2 kts | 333° |
| 2025-10-10 07:08 | 53.51068 | 50.15907 | 492 ft | 5 kts | 32° |
| 2025-10-10 07:09 | 53.51101 | 50.15969 | 492 ft | 8 kts | 60° |
| 2025-10-10 07:09 | 53.51178 | 50.16205 | 492 ft | 14 kts | 62° |
| 2025-10-10 07:10 | 53.51337 | 50.16688 | 492 ft | 13 kts | 36° |
| 2025-10-10 07:10 | 53.51481 | 50.16625 | 492 ft | 5 kts | 354° |
| 2025-10-10 07:11 | 53.51649 | 50.16554 | 492 ft | 19 kts | 345° |
| 2025-10-10 07:11 | 53.51775 | 50.16597 | 492 ft | 19 kts | 38° |
| 2025-10-10 07:12 | 53.51810 | 50.16736 | 492 ft | 0 kts | 86° |
| 2025-10-10 07:13 | 53.51732 | 50.16906 | 492 ft | 0 kts | 159° |
| 2025-10-10 07:13 | 53.51281 | 50.17181 | 492 ft | 110 kts | 158° |
| 2025-10-10 07:14 | 53.47784 | 50.19119 | 2281 ft | 219 kts | 160° |
| 2025-10-10 07:14 | 53.44863 | 50.20909 | 4816 ft | 235 kts | 159° |
| 2025-10-10 07:15 | 53.41588 | 50.21670 | 7119 ft | 260 kts | 193° |
| 2025-10-10 07:15 | 53.38916 | 50.17606 | 9453 ft | 289 kts | 243° |
| 2025-10-10 07:16 | 53.38258 | 50.14418 | 10562 ft | 297 kts | 248° |
| 2025-10-10 07:16 | 53.36874 | 50.07521 | 12281 ft | 328 kts | 247° |
| 2025-10-10 07:17 | 53.35279 | 50.00044 | 13914 ft | 357 kts | 248° |
| 2025-10-10 07:17 | 53.32809 | 49.87851 | 16876 ft | 380 kts | 257° |
| 2025-10-10 07:18 | 53.32818 | 49.78959 | 18859 ft | 395 kts | 280° |
| 2025-10-10 07:18 | 53.34335 | 49.69956 | 20774 ft | 407 kts | 285° |
| 2025-10-10 07:19 | 53.35945 | 49.60814 | 22615 ft | 417 kts | 285° |
| 2025-10-10 07:19 | 53.36762 | 49.56136 | 23510 ft | 422 kts | 285° |
| 2025-10-10 07:20 | 53.40109 | 49.36746 | 26773 ft | 444 kts | 285° |
| 2025-10-10 07:22 | 53.47333 | 48.89501 | 32282 ft | 476 kts | 270° |
| 2025-10-10 07:24 | 53.47635 | 48.51228 | 36058 ft | 466 kts | 269° |
| 2025-10-10 07:26 | 53.47825 | 47.99216 | 36197 ft | 509 kts | 268° |
| 2025-10-10 07:28 | 53.48000 | 47.57498 | 36194 ft | 510 kts | 270° |
| 2025-10-10 07:30 | 53.48797 | 47.03672 | 36196 ft | 511 kts | 269° |
| 2025-10-10 07:32 | 53.49272 | 46.55911 | 36190 ft | 511 kts | 269° |
| 2025-10-10 07:34 | 53.49558 | 46.07899 | 36195 ft | 512 kts | 269° |
| 2025-10-10 07:36 | 53.49651 | 45.60039 | 36193 ft | 512 kts | 269° |
| 2025-10-10 07:38 | 53.49553 | 45.11921 | 36194 ft | 513 kts | 268° |
| 2025-10-10 07:40 | 53.49259 | 44.63997 | 36192 ft | 513 kts | 268° |
| 2025-10-10 07:42 | 53.48773 | 44.15987 | 36052 ft | 515 kts | 267° |
| 2025-10-10 07:44 | 53.48092 | 43.67870 | 35987 ft | 515 kts | 267° |
| 2025-10-10 07:46 | 53.47218 | 43.19845 | 35990 ft | 515 kts | 266° |
| 2025-10-10 07:48 | 53.46151 | 42.71838 | 35984 ft | 515 kts | 266° |
| 2025-10-10 07:50 | 53.49703 | 42.24409 | 35987 ft | 521 kts | 284° |
| 2025-10-10 07:52 | 53.56834 | 41.83546 | 35984 ft | 521 kts | 284° |
| 2025-10-10 07:54 | 53.65785 | 41.30544 | 35989 ft | 524 kts | 283° |
| 2025-10-10 07:56 | 53.75165 | 40.83940 | 35990 ft | 527 kts | 292° |
| 2025-10-10 07:58 | 53.86805 | 40.38484 | 35971 ft | 527 kts | 292° |
| 2025-10-10 08:00 | 53.96883 | 39.98453 | 35968 ft | 528 kts | 291° |
| 2025-10-10 08:02 | 54.09624 | 39.46795 | 35954 ft | 527 kts | 291° |
| 2025-10-10 08:04 | 54.19269 | 39.06861 | 35944 ft | 526 kts | 290° |
| 2025-10-10 08:06 | 54.35394 | 38.57938 | 35946 ft | 527 kts | 302° |
| 2025-10-10 08:08 | 54.49244 | 38.20888 | 35942 ft | 527 kts | 299° |
| 2025-10-10 08:11 | 54.65227 | 37.64058 | 35947 ft | 528 kts | 295° |
| 2025-10-10 08:12 | 54.72707 | 37.22280 | 35925 ft | 525 kts | 270° |
| 2025-10-10 08:14 | 54.73274 | 36.71680 | 35927 ft | 527 kts | 270° |
| 2025-10-10 08:16 | 54.73649 | 36.20910 | 35925 ft | 528 kts | 269° |
| 2025-10-10 08:18 | 54.73803 | 35.70024 | 35927 ft | 530 kts | 269° |
| 2025-10-10 08:20 | 54.73731 | 35.19055 | 35925 ft | 530 kts | 268° |
| 2025-10-10 08:22 | 54.72815 | 34.68120 | 35928 ft | 531 kts | 267° |
| 2025-10-10 08:24 | 54.71703 | 34.17127 | 35924 ft | 530 kts | 266° |
| 2025-10-10 08:26 | 54.69763 | 33.66468 | 36111 ft | 528 kts | 263° |
| 2025-10-10 08:28 | 54.66365 | 33.16112 | 36109 ft | 528 kts | 263° |
| 2025-10-10 08:30 | 54.62817 | 32.65850 | 36114 ft | 528 kts | 263° |
| 2025-10-10 08:32 | 54.59073 | 32.15759 | 36003 ft | 528 kts | 262° |
| 2025-10-10 08:34 | 54.55138 | 31.65947 | 35967 ft | 526 kts | 262° |
| 2025-10-10 08:36 | 54.50991 | 31.16146 | 35967 ft | 526 kts | 261° |
| 2025-10-10 08:38 | 54.50315 | 30.66135 | 35966 ft | 515 kts | 269° |
| 2025-10-10 08:40 | 54.50142 | 30.17055 | 35967 ft | 515 kts | 268° |
| 2025-10-10 08:42 | 54.49752 | 29.67556 | 35968 ft | 521 kts | 268° |
| 2025-10-10 08:44 | 54.49235 | 29.23713 | 35966 ft | 521 kts | 270° |
| 2025-10-10 08:46 | 54.48350 | 28.67866 | 35987 ft | 519 kts | 271° |
| 2025-10-10 08:48 | 54.47480 | 28.24345 | 35990 ft | 520 kts | 271° |
| 2025-10-10 08:50 | 54.46136 | 27.68534 | 35988 ft | 520 kts | 271° |
| 2025-10-10 08:52 | 54.44907 | 27.24972 | 35990 ft | 521 kts | 271° |
| 2025-10-10 08:54 | 54.43104 | 26.69084 | 35988 ft | 522 kts | 272° |
| 2025-10-10 08:56 | 54.41555 | 26.25953 | 35989 ft | 522 kts | 272° |
| 2025-10-10 08:58 | 54.39312 | 25.69999 | 35990 ft | 523 kts | 273° |
| 2025-10-10 09:00 | 54.36252 | 25.26435 | 35990 ft | 528 kts | 269° |
| 2025-10-10 09:03 | 54.30938 | 24.64293 | 35991 ft | 528 kts | 269° |
| 2025-10-10 09:04 | 54.27049 | 24.20849 | 35994 ft | 527 kts | 269° |
| 2025-10-10 09:06 | 54.22423 | 23.71398 | 36015 ft | 526 kts | 269° |
| 2025-10-10 09:08 | 54.15038 | 23.22781 | 36017 ft | 543 kts | 255° |
| 2025-10-10 09:10 | 54.03860 | 22.75285 | 36018 ft | 536 kts | 259° |
| 2025-10-10 09:12 | 53.94113 | 22.27677 | 36104 ft | 536 kts | 258° |
| 2025-10-10 09:14 | 53.84880 | 21.84005 | 36117 ft | 446 kts | 244° |
| 2025-10-10 09:16 | 53.76311 | 21.44296 | 36113 ft | 450 kts | 244° |
| 2025-10-10 09:18 | 53.67600 | 21.04724 | 36113 ft | 449 kts | 243° |
| 2025-10-10 09:20 | 53.58815 | 20.65562 | 36112 ft | 447 kts | 243° |
| 2025-10-10 09:22 | 53.49956 | 20.26768 | 36114 ft | 445 kts | 242° |
| 2025-10-10 09:24 | 53.40980 | 19.88102 | 36121 ft | 476 kts | 259° |
| 2025-10-10 09:26 | 53.30455 | 19.43695 | 36197 ft | 533 kts | 257° |
| 2025-10-10 09:28 | 53.19319 | 18.97725 | 36202 ft | 535 kts | 256° |
| 2025-10-10 09:30 | 53.08005 | 18.51945 | 36201 ft | 534 kts | 256° |
| 2025-10-10 09:32 | 52.96548 | 18.06528 | 36205 ft | 534 kts | 255° |
| 2025-10-10 09:34 | 52.84905 | 17.61300 | 36185 ft | 533 kts | 254° |
| 2025-10-10 09:36 | 52.72973 | 17.15777 | 36204 ft | 517 kts | 240° |
| 2025-10-10 09:38 | 52.61670 | 16.73595 | 36256 ft | 503 kts | 240° |
| 2025-10-10 09:40 | 52.51669 | 16.36871 | 36259 ft | 503 kts | 240° |
| 2025-10-10 09:42 | 52.38299 | 15.88686 | 36301 ft | 538 kts | 250° |
| 2025-10-10 09:44 | 52.26035 | 15.45298 | 36301 ft | 524 kts | 250° |
| 2025-10-10 09:46 | 52.13649 | 15.02292 | 36298 ft | 523 kts | 249° |
| 2025-10-10 09:48 | 51.98028 | 14.62601 | 36301 ft | 532 kts | 229° |
| 2025-10-10 09:50 | 51.77403 | 14.28286 | 36351 ft | 531 kts | 228° |
| 2025-10-10 09:52 | 51.56676 | 13.94364 | 36379 ft | 524 kts | 222° |
| 2025-10-10 09:54 | 51.37139 | 13.62838 | 36376 ft | 493 kts | 223° |
| 2025-10-10 09:56 | 51.17725 | 13.31906 | 36376 ft | 494 kts | 222° |
| 2025-10-10 09:58 | 50.98213 | 13.01205 | 36392 ft | 494 kts | 222° |
| 2025-10-10 10:00 | 50.78590 | 12.70712 | 36401 ft | 495 kts | 223° |
| 2025-10-10 10:02 | 50.58834 | 12.40392 | 36396 ft | 496 kts | 223° |
| 2025-10-10 10:04 | 50.41486 | 12.14076 | 36419 ft | 497 kts | 222° |
| 2025-10-10 10:06 | 50.18698 | 11.79934 | 36418 ft | 522 kts | 224° |
| 2025-10-10 10:08 | 50.00340 | 11.52765 | 36419 ft | 520 kts | 224° |
| 2025-10-10 10:10 | 49.76987 | 11.18639 | 36431 ft | 519 kts | 224° |
| 2025-10-10 10:12 | 49.58580 | 10.92074 | 36460 ft | 518 kts | 223° |
| 2025-10-10 10:14 | 49.35701 | 10.56966 | 36438 ft | 517 kts | 227° |
| 2025-10-10 10:16 | 49.18146 | 10.29839 | 36455 ft | 516 kts | 225° |
| 2025-10-10 10:18 | 48.97496 | 9.92113 | 36457 ft | 515 kts | 231° |
| 2025-10-10 10:20 | 48.81997 | 9.63133 | 36459 ft | 516 kts | 231° |
| 2025-10-10 10:22 | 48.61623 | 9.25521 | 36456 ft | 516 kts | 230° |
| 2025-10-10 10:24 | 48.47015 | 8.94612 | 36457 ft | 517 kts | 234° |
| 2025-10-10 10:26 | 48.28137 | 8.55124 | 36456 ft | 518 kts | 234° |
| 2025-10-10 10:28 | 48.11449 | 8.27735 | 36480 ft | 518 kts | 209° |
| 2025-10-10 10:30 | 47.83231 | 8.04828 | 36476 ft | 519 kts | 208° |
| 2025-10-10 10:32 | 47.61009 | 7.87075 | 36459 ft | 520 kts | 208° |
| 2025-10-10 10:34 | 47.32411 | 7.64169 | 36458 ft | 521 kts | 215° |
| 2025-10-10 10:36 | 47.16031 | 7.36217 | 36439 ft | 523 kts | 232° |
| 2025-10-10 10:38 | 46.95924 | 6.99268 | 36438 ft | 523 kts | 231° |
| 2025-10-10 10:40 | 46.80179 | 6.70705 | 36438 ft | 524 kts | 231° |
| 2025-10-10 10:42 | 46.61287 | 6.38392 | 36436 ft | 525 kts | 228° |
| 2025-10-10 10:44 | 46.42033 | 6.07013 | 36417 ft | 525 kts | 227° |
| 2025-10-10 10:46 | 46.13498 | 5.89990 | 36418 ft | 516 kts | 175° |
| 2025-10-10 10:48 | 45.89122 | 5.92073 | 36399 ft | 515 kts | 174° |
| 2025-10-10 10:50 | 45.60431 | 5.94845 | 36398 ft | 515 kts | 174° |
| 2025-10-10 10:52 | 45.28519 | 5.90085 | 36399 ft | 520 kts | 190° |
| 2025-10-10 10:54 | 45.03856 | 5.82430 | 36398 ft | 520 kts | 190° |
| 2025-10-10 10:56 | 44.76164 | 5.73927 | 36417 ft | 519 kts | 190° |
| 2025-10-10 10:58 | 44.47959 | 5.65355 | 36357 ft | 519 kts | 190° |
| 2025-10-10 11:00 | 44.20536 | 5.52792 | 36359 ft | 522 kts | 200° |
| 2025-10-10 11:02 | 43.93590 | 5.38144 | 36360 ft | 521 kts | 200° |
| 2025-10-10 11:04 | 43.67222 | 5.23936 | 36335 ft | 520 kts | 199° |
| 2025-10-10 11:06 | 43.40491 | 5.09645 | 33844 ft | 496 kts | 201° |
| 2025-10-10 11:08 | 43.18337 | 4.89584 | 28293 ft | 463 kts | 213° |
| 2025-10-10 11:09 | 43.05407 | 4.77380 | 24836 ft | 446 kts | 218° |
| 2025-10-10 11:10 | 43.00795 | 4.71867 | 23455 ft | 438 kts | 220° |
| 2025-10-10 11:10 | 42.96281 | 4.66403 | 22067 ft | 429 kts | 219° |
| 2025-10-10 11:11 | 42.93922 | 4.64047 | 21382 ft | 423 kts | 209° |
| 2025-10-10 11:11 | 42.88796 | 4.61331 | 20048 ft | 409 kts | 189° |
| 2025-10-10 11:12 | 42.80676 | 4.62286 | 17954 ft | 386 kts | 156° |
| 2025-10-10 11:12 | 42.78319 | 4.63941 | 17255 ft | 378 kts | 145° |
| 2025-10-10 11:13 | 42.73089 | 4.75091 | 14480 ft | 353 kts | 93° |
| 2025-10-10 11:14 | 42.74203 | 4.81373 | 13097 ft | 346 kts | 60° |
| 2025-10-10 11:14 | 42.75625 | 4.84007 | 12404 ft | 342 kts | 52° |
| 2025-10-10 11:14 | 42.78209 | 4.88317 | 11205 ft | 337 kts | 52° |
| 2025-10-10 11:15 | 42.81123 | 4.93205 | 9822 ft | 331 kts | 52° |
| 2025-10-10 11:15 | 42.83978 | 4.98031 | 8433 ft | 325 kts | 52° |
| 2025-10-10 11:16 | 42.86776 | 5.02771 | 7046 ft | 321 kts | 52° |
| 2025-10-10 11:16 | 42.89491 | 5.07381 | 6380 ft | 295 kts | 52° |
| 2025-10-10 11:17 | 42.93589 | 5.12503 | 6351 ft | 244 kts | 40° |
| 2025-10-10 11:18 | 42.96117 | 5.15417 | 6014 ft | 235 kts | 40° |
| 2025-10-10 11:18 | 42.98781 | 5.18495 | 5520 ft | 262 kts | 40° |
| 2025-10-10 11:18 | 43.00157 | 5.20081 | 5267 ft | 260 kts | 40° |
| 2025-10-10 11:19 | 43.02912 | 5.23250 | 5002 ft | 258 kts | 40° |
| 2025-10-10 11:19 | 43.05660 | 5.26409 | 5002 ft | 258 kts | 40° |
| 2025-10-10 11:20 | 43.08406 | 5.29569 | 5003 ft | 258 kts | 40° |
| 2025-10-10 11:20 | 43.11185 | 5.32771 | 5003 ft | 258 kts | 40° |
| 2025-10-10 11:21 | 43.15279 | 5.37493 | 4993 ft | 243 kts | 40° |
| 2025-10-10 11:21 | 43.16539 | 5.38944 | 4987 ft | 231 kts | 40° |
| 2025-10-10 11:22 | 43.18947 | 5.41717 | 5004 ft | 227 kts | 40° |
| 2025-10-10 11:22 | 43.21274 | 5.44395 | 5011 ft | 207 kts | 40° |
| 2025-10-10 11:23 | 43.23471 | 5.46921 | 4704 ft | 204 kts | 40° |
| 2025-10-10 11:23 | 43.25905 | 5.48255 | 4060 ft | 190 kts | 353° |
| 2025-10-10 11:24 | 43.28009 | 5.46247 | 3231 ft | 191 kts | 312° |
| 2025-10-10 11:24 | 43.28764 | 5.44803 | 3021 ft | 183 kts | 293° |
| 2025-10-10 11:25 | 43.31549 | 5.39047 | 2990 ft | 175 kts | 314° |
| 2025-10-10 11:26 | 43.33106 | 5.36756 | 2983 ft | 155 kts | 314° |
| 2025-10-10 11:26 | 43.33831 | 5.35684 | 2800 ft | 153 kts | 314° |
| 2025-10-10 11:26 | 43.35231 | 5.33602 | 2410 ft | 145 kts | 314° |
| 2025-10-10 11:27 | 43.36575 | 5.31600 | 2113 ft | 137 kts | 314° |
| 2025-10-10 11:27 | 43.37906 | 5.29636 | 1713 ft | 138 kts | 314° |
| 2025-10-10 11:28 | 43.38562 | 5.28701 | 1484 ft | 136 kts | 314° |
| 2025-10-10 11:28 | 43.40615 | 5.25964 | 831 ft | 137 kts | 314° |
| 2025-10-10 11:29 | 43.42530 | 5.23133 | 256 ft | 130 kts | 310° |
| 2025-10-10 11:30 | 43.43623 | 5.21561 | 89 ft | 60 kts | 313° |
| 2025-10-10 11:30 | 43.43863 | 5.21219 | 89 ft | 31 kts | 315° |
| 2025-10-10 11:30 | 43.44095 | 5.21082 | 89 ft | 13 kts | 353° |
| 2025-10-10 11:31 | 43.44236 | 5.21265 | 89 ft | 15 kts | 62° |
| 2025-10-10 11:31 | 43.44298 | 5.21472 | 89 ft | 12 kts | 114° |
| 2025-10-10 11:32 | 43.44131 | 5.21683 | 89 ft | 17 kts | 135° |
| 2025-10-10 11:32 | 43.44079 | 5.21872 | 89 ft | 11 kts | 30° |
| 2025-10-10 11:33 | 43.44134 | 5.21931 | 89 ft | 4 kts | 42° |